默认 日期 大小 文件数 浏览量 最新下载 xml
2026.磁力链接相关资源由用户搜索指令自动获取,结果来源于网络,本站不存储任何资料,亦不承担任何责任,请于24小时内删除,搜索到38095个磁力,显示前4000条数据,用时5ms。
    ... - Hard Reset Rap Hip-Hop (2026) 320_kbps Beats⭐": {"cover.jpg": 20772 ...
创建时间: 2026-01-11 17:54:32 大小:48.31 MB 文件数量:11 热度:0
    {"SketchUp 2026 v28.43.25 (x64) Full Version.iso": 1978466304}
创建时间: 2026-01-11 17:54:55 大小:1.84 GB 文件数量:1 热度:0
    {"front.jpg": 155792, "12 10.flac": 15129598, "01 Mrs.Key.flac": 12955428, "13 Keyette.flac": 10071932, "03 Keezy Flow.flac": 13888852, "08 #Mobblanta.flac": 12361701, "04 Talkin2Jesus.flac": 14160583, "06 Take Her To Mars.flac": 16045720, "09 Land On The ...
创建时间: 2026-01-11 17:55:52 大小:171.88 MB 文件数量:14 热度:0
    ... .txt": 129, "His and Hers 2026 S01E01 1080p 10bit WEBRip 6CH ... mkv": 654842478, "His.and.Hers.2026.S01E02.1080p.10bit.WEBRip.6CH ... mkv": 594484180, "His.and.Hers.2026.S01E03.1080p.10bit.WEBRip.6CH ... mkv": 556048143, "His.and.Hers.2026.S01E04.1080p.10bit.WEBRip.6CH ...
创建时间: 2026-01-11 18:00:26 大小:3.32 GB 文件数量:8 热度:0
    {"4096社区最新地址1.url": 117, "4096社区最新地址2.url": 117, "4096社区最新地址3.url": 112, "在线约炮平台推荐.mp4": 34127979, "在线小姐上门平台推荐.url": 111, "4096bbs.com@ NEW Monroe Fox Skinny Monroe Fox Extreme Face Fucked LegalPorno Anal Deepthroat Hardcore Milman https lulustream com e ...
创建时间: 2026-01-11 18:12:37 大小:560.47 MB 文件数量:6 热度:0
    {"Constable Kanakam S02 - Ep02 - Addam.mkv": 669828561, "Constable Kanakam S02 - Ep03 - Selavu.mkv": 618297723, "Constable Kanakam S02 - Ep04 - Siksha.mkv": 789057423, "Constable Kanakam S02 - Ep01 - Konda Thelu.mkv": 591270308}
创建时间: 2026-01-11 18:17:04 大小:2.49 GB 文件数量:4 热度:0
    ... WWE RAW S34 Stranger Things 2026 4K 2160p Logo1.jpg": ... WWE RAW S34 Stranger Things 2026 4K 2160p Logo2.jpg": ... WWE RAW S34 Stranger Things 2026 4K 2160p Logo3.jpg": ... S34E01 Stranger Things Netflix 2026-01-05 4K 2160p ... S34E01 Stranger Things Netflix 2026-01-05 4K ...
创建时间: 2026-01-11 18:24:08 大小:5.41 GB 文件数量:5 热度:0
    {"~Get Your Files Here !": {"1 - Introduction": {"1 - Introduction.mp4": 6565978, "2 - Open Ms Word Four Method.mp4": 142563466, "3 - MS Word Interface Overview.mp4": 28621514, "4 - MS Word Tab Robbin Complete Easy Guide.mp4": 84000190}, "Bonus Resources. ...
创建时间: 2026-01-11 18:25:42 大小:2.54 GB 文件数量:26 热度:0
    {"4096社区最新地址1.url": 117, "4096社区最新地址2.url": 117, "4096社区最新地址3.url": 112, "在线约炮平台推荐.mp4": 34127979, "在线小姐上门平台推荐.url": 111, "4096bbs.com@ New LegalPorno Anna de Ville Monsters of TAP Fist 5on1 ATM Balls Deep Extreme Deepthroat NoPussy RoughSex Big Gapes ...
创建时间: 2026-01-11 18:52:21 大小:1.31 GB 文件数量:6 热度:0
    {"273__s_7563822.png": 1465786, "497__s_2614986.png": 1584676, "588__s_2614986.png": 1569693, "002__s_87906892.png": 1462530, "066__s_23350624.png": 1481489, "104__s_39693707.png": 1422031, "129__s_82639463.png": 1357817, "199__s_82639463.png": 1403618, " ...
创建时间: 2026-01-11 19:05:28 大小:1.26 GB 文件数量:906 热度:0
    {"02 - Soul Cry.mp3": 6060834, "04 - Holy Spirit.mp3": 10058620, "03 - Dragon's Tail.mp3": 7384730, "01 - Built For Speed.mp3": 6620914}
创建时间: 2026-01-11 19:05:33 大小:28.73 MB 文件数量:4 热度:0
    {"Vergadia P. Visualizing Generative AI. How AI Paints, Writes, and Assists 2026.pdf": 160340771}
创建时间: 2026-01-11 19:15:29 大小:152.91 MB 文件数量:1 热度:0
    {"Cover.jpg": 2180303, "04 Burj.mp3": 12458621, "01 Awaken.mp3": 12487882, "08 Imzadi.mp3": 16771964, "06 Enemy Mine.mp3": 15235972, "07 Old Republic.mp3": 15738572, "05 Dead Sea Scrolls.mp3": 11946645, "10 Plans Within Plans.mp3": 18160658, "09 Welcome to ...
创建时间: 2026-01-11 19:24:34 大小:137.89 MB 文件数量:11 热度:0
    {"DMG": {"Adobe Illustrator 2026 v30.1.0 macOS.dmg": 4267828815}, "AppDoze.net.txt": 40, "How to Install.txt": 450}
创建时间: 2026-01-11 19:26:10 大小:3.97 GB 文件数量:3 热度:0
    {"ACDSee Photo Studio 2026 v10.17.10 Enterprise Edition.iso": 632160256}
创建时间: 2026-01-11 19:26:30 大小:602.88 MB 文件数量:1 热度:0
    {"README.txt": 554, "INSTALL ENG.cmd": 739, "INSTALL RUS.cmd": 739, "SketchUp.Pro.v26.1.189.exe": 619686904}
创建时间: 2026-01-11 19:27:33 大小:590.98 MB 文件数量:4 热度:0
    {"Samples": {"Sample1.mkv": 77706379, "Sample2.mkv": 97209476}, "Info.txt": 1188, "Torrent Downloaded From UIndex.org .txt": 129, "Greenland.2.Migration.2026.1080p.TELESYNC.READ.NFO.x264-SyncUP.mkv": 3752979883}
创建时间: 2026-01-11 19:31:49 大小:3.66 GB 文件数量:5 热度:0
    ... .org .txt": 129, "Stephen.Colbert.2026.01.08.Tom.Hiddleston.720p ... -JOAN.mkv": 1722363691, "stephen.colbert.2026.01.08.tom.hiddleston.720p ...
创建时间: 2026-01-11 19:34:24 大小:1.61 GB 文件数量:7 热度:0
    {"Importante Leeme!.vbs": 213, "Descargar Películas, Series y Animes...url": 50, "El.y.ella.S01E05.2026.WEB-DL.1080p-Dual-Lat.mkv": 2067457943}
创建时间: 2026-01-11 19:43:41 大小:1.93 GB 文件数量:3 热度:0
    {"cover.jpg": 60786, "foo_dr.txt": 1508, "01 - That Look.flac": 24112229, "02 - Old Betty.flac": 32074635, "03 - BTK Blues.flac": 38490161, "05 - I'll Wait.flac": 32872039, "07 - O Darlin'.flac": 26288596, "Folder.auCDtect.txt": 4852, "10 - Don't You Do. ...
创建时间: 2026-01-11 19:44:20 大小:256.08 MB 文件数量:14 热度:0